<?xml version="1.0" encoding="UTF-8" standalone="no" ?>
<gpx xmlns="http://www.topografix.com/GPX/1/1" xmlns:xsi="http://www.w3.org/2001/XMLSchema-instance" xsi:schemaLocation="http://www.topografix.com/GPX/1/1 http://www.topografix.com/GPX/1/1/gpx.xsd" version="1.1" creator="VisuGPX - https://www.visugpx.com">
  <metadata>
    <name>Clermont-Ferrand - Massat - Pau par François</name>
    <desc><![CDATA[Trajet effectué par François sur la "Diagonale du vide" en aout 2020]]></desc>
  </metadata>
  <trk>
    <name><![CDATA[route108]]></name>
    <trkseg>
      <trkpt lat="44.36082" lon="3.74616">
        <ele>953.7</ele>
        <time>2020-08-21T06:04:56Z</time>
      </trkpt>
      <trkpt lat="44.35993" lon="3.74579">
        <ele>956.9</ele>
        <time>2020-08-21T06:06:10Z</time>
      </trkpt>
      <trkpt lat="44.35898" lon="3.7454">
        <ele>961.1</ele>
        <time>2020-08-21T06:07:20Z</time>
      </trkpt>
      <trkpt lat="44.35802" lon="3.74519">
        <ele>964.6</ele>
        <time>2020-08-21T06:08:24Z</time>
      </trkpt>
      <trkpt lat="44.35702" lon="3.74498">
        <ele>966.8</ele>
        <time>2020-08-21T06:09:05Z</time>
      </trkpt>
      <trkpt lat="44.35611" lon="3.7446">
        <ele>970.2</ele>
        <time>2020-08-21T06:09:54Z</time>
      </trkpt>
      <trkpt lat="44.35517" lon="3.74481">
        <ele>976</ele>
        <time>2020-08-21T06:10:58Z</time>
      </trkpt>
      <trkpt lat="44.35431" lon="3.74537">
        <ele>980</ele>
        <time>2020-08-21T06:11:46Z</time>
      </trkpt>
      <trkpt lat="44.35341" lon="3.74565">
        <ele>982.5</ele>
        <time>2020-08-21T06:12:21Z</time>
      </trkpt>
      <trkpt lat="44.35261" lon="3.74625">
        <ele>986.3</ele>
        <time>2020-08-21T06:13:06Z</time>
      </trkpt>
      <trkpt lat="44.35167" lon="3.74634">
        <ele>990.1</ele>
        <time>2020-08-21T06:13:55Z</time>
      </trkpt>
      <trkpt lat="44.3507" lon="3.74605">
        <ele>993.6</ele>
        <time>2020-08-21T06:14:52Z</time>
      </trkpt>
      <trkpt lat="44.34972" lon="3.74596">
        <ele>996.1</ele>
        <time>2020-08-21T06:15:38Z</time>
      </trkpt>
      <trkpt lat="44.34882" lon="3.74612">
        <ele>997.9</ele>
        <time>2020-08-21T06:16:08Z</time>
      </trkpt>
      <trkpt lat="44.34786" lon="3.74619">
        <ele>1000.6</ele>
        <time>2020-08-21T06:16:48Z</time>
      </trkpt>
      <trkpt lat="44.34696" lon="3.74599">
        <ele>1003.3</ele>
        <time>2020-08-21T06:17:28Z</time>
      </trkpt>
      <trkpt lat="44.3461" lon="3.74649">
        <ele>1005.5</ele>
        <time>2020-08-21T06:18:03Z</time>
      </trkpt>
      <trkpt lat="44.34519" lon="3.74702">
        <ele>1007.8</ele>
        <time>2020-08-21T06:18:38Z</time>
      </trkpt>
      <trkpt lat="44.34418" lon="3.74718">
        <ele>1010.6</ele>
        <time>2020-08-21T06:19:13Z</time>
      </trkpt>
      <trkpt lat="44.34323" lon="3.74717">
        <ele>1014.7</ele>
        <time>2020-08-21T06:19:53Z</time>
      </trkpt>
      <trkpt lat="44.34233" lon="3.74712">
        <ele>1018.9</ele>
        <time>2020-08-21T06:20:42Z</time>
      </trkpt>
      <trkpt lat="44.34142" lon="3.74715">
        <ele>1022.2</ele>
        <time>2020-08-21T06:21:30Z</time>
      </trkpt>
      <trkpt lat="44.3405" lon="3.74759">
        <ele>1026</ele>
        <time>2020-08-21T06:22:31Z</time>
      </trkpt>
      <trkpt lat="44.33976" lon="3.74835">
        <ele>1027.6</ele>
        <time>2020-08-21T06:23:06Z</time>
      </trkpt>
      <trkpt lat="44.33942" lon="3.7471">
        <ele>1030.9</ele>
        <time>2020-08-21T06:24:01Z</time>
      </trkpt>
      <trkpt lat="44.3395" lon="3.74574">
        <ele>1032.7</ele>
        <time>2020-08-21T06:24:36Z</time>
      </trkpt>
      <trkpt lat="44.33935" lon="3.74437">
        <ele>1035.5</ele>
        <time>2020-08-21T06:25:11Z</time>
      </trkpt>
      <trkpt lat="44.33841" lon="3.74448">
        <ele>1036.7</ele>
        <time>2020-08-21T06:25:41Z</time>
      </trkpt>
      <trkpt lat="44.33747" lon="3.74465">
        <ele>1038.9</ele>
        <time>2020-08-21T06:26:27Z</time>
      </trkpt>
      <trkpt lat="44.33663" lon="3.74523">
        <ele>1041.5</ele>
        <time>2020-08-21T06:27:15Z</time>
      </trkpt>
      <trkpt lat="44.33566" lon="3.74544">
        <ele>1044.4</ele>
        <time>2020-08-21T06:27:58Z</time>
      </trkpt>
      <trkpt lat="44.33476" lon="3.74573">
        <ele>1047.2</ele>
        <time>2020-08-21T06:28:38Z</time>
      </trkpt>
      <trkpt lat="44.33386" lon="3.74596">
        <ele>1048.9</ele>
        <time>2020-08-21T06:29:13Z</time>
      </trkpt>
      <trkpt lat="44.3329" lon="3.74581">
        <ele>1050.4</ele>
        <time>2020-08-21T06:29:48Z</time>
      </trkpt>
      <trkpt lat="44.33199" lon="3.74546">
        <ele>1052.5</ele>
        <time>2020-08-21T06:30:29Z</time>
      </trkpt>
      <trkpt lat="44.33128" lon="3.74461">
        <ele>1055.2</ele>
        <time>2020-08-21T06:31:15Z</time>
      </trkpt>
      <trkpt lat="44.33102" lon="3.74331">
        <ele>1057.5</ele>
        <time>2020-08-21T06:31:57Z</time>
      </trkpt>
      <trkpt lat="44.33014" lon="3.74257">
        <ele>1059.6</ele>
        <time>2020-08-21T06:32:37Z</time>
      </trkpt>
      <trkpt lat="44.33009" lon="3.74118">
        <ele>1062.5</ele>
        <time>2020-08-21T06:33:24Z</time>
      </trkpt>
      <trkpt lat="44.33025" lon="3.73978">
        <ele>1064.5</ele>
        <time>2020-08-21T06:34:04Z</time>
      </trkpt>
      <trkpt lat="44.33041" lon="3.73849">
        <ele>1066.2</ele>
        <time>2020-08-21T06:34:45Z</time>
      </trkpt>
      <trkpt lat="44.33103" lon="3.73744">
        <ele>1068.1</ele>
        <time>2020-08-21T06:35:26Z</time>
      </trkpt>
      <trkpt lat="44.33152" lon="3.73618">
        <ele>1069.3</ele>
        <time>2020-08-21T06:35:56Z</time>
      </trkpt>
      <trkpt lat="44.33188" lon="3.73501">
        <ele>1071.5</ele>
        <time>2020-08-21T06:36:45Z</time>
      </trkpt>
      <trkpt lat="44.33223" lon="3.73374">
        <ele>1073.7</ele>
        <time>2020-08-21T06:37:30Z</time>
      </trkpt>
      <trkpt lat="44.33216" lon="3.73243">
        <ele>1075.2</ele>
        <time>2020-08-21T06:38:05Z</time>
      </trkpt>
      <trkpt lat="44.3321" lon="3.7311">
        <ele>1077.2</ele>
        <time>2020-08-21T06:38:56Z</time>
      </trkpt>
      <trkpt lat="44.33255" lon="3.72993">
        <ele>1079.9</ele>
        <time>2020-08-21T06:39:50Z</time>
      </trkpt>
      <trkpt lat="44.3325" lon="3.72858">
        <ele>1083.4</ele>
        <time>2020-08-21T06:40:52Z</time>
      </trkpt>
      <trkpt lat="44.33301" lon="3.72746">
        <ele>1091.2</ele>
        <time>2020-08-21T06:41:50Z</time>
      </trkpt>
      <trkpt lat="44.33315" lon="3.72614">
        <ele>1098.2</ele>
        <time>2020-08-21T06:42:39Z</time>
      </trkpt>
      <trkpt lat="44.33322" lon="3.72487">
        <ele>1106.5</ele>
        <time>2020-08-21T06:43:25Z</time>
      </trkpt>
      <trkpt lat="44.33264" lon="3.72377">
        <ele>1114.2</ele>
        <time>2020-08-21T06:44:15Z</time>
      </trkpt>
      <trkpt lat="44.33175" lon="3.72297">
        <ele>1122.6</ele>
        <time>2020-08-21T06:44:50Z</time>
      </trkpt>
      <trkpt lat="44.33099" lon="3.72215">
        <ele>1124.3</ele>
        <time>2020-08-21T06:45:15Z</time>
      </trkpt>
      <trkpt lat="44.33017" lon="3.72143">
        <ele>1124.8</ele>
        <time>2020-08-21T06:45:40Z</time>
      </trkpt>
      <trkpt lat="44.33031" lon="3.72003">
        <ele>1125.1</ele>
        <time>2020-08-21T06:46:50Z</time>
      </trkpt>
      <trkpt lat="44.33026" lon="3.71867">
        <ele>1125.8</ele>
        <time>2020-08-21T06:47:15Z</time>
      </trkpt>
      <trkpt lat="44.32942" lon="3.71774">
        <ele>1125.8</ele>
        <time>2020-08-21T06:47:40Z</time>
      </trkpt>
      <trkpt lat="44.33014" lon="3.7168">
        <ele>1125.7</ele>
        <time>2020-08-21T06:48:05Z</time>
      </trkpt>
      <trkpt lat="44.33068" lon="3.7158">
        <ele>1125.8</ele>
        <time>2020-08-21T06:48:35Z</time>
      </trkpt>
      <trkpt lat="44.33079" lon="3.71448">
        <ele>1128.3</ele>
        <time>2020-08-21T06:49:22Z</time>
      </trkpt>
      <trkpt lat="44.33162" lon="3.71376">
        <ele>1131.5</ele>
        <time>2020-08-21T06:50:01Z</time>
      </trkpt>
      <trkpt lat="44.33209" lon="3.71266">
        <ele>1131.8</ele>
        <time>2020-08-21T06:50:46Z</time>
      </trkpt>
      <trkpt lat="44.33176" lon="3.71145">
        <ele>1133.2</ele>
        <time>2020-08-21T06:51:26Z</time>
      </trkpt>
      <trkpt lat="44.3315" lon="3.71019">
        <ele>1136.6</ele>
        <time>2020-08-21T06:52:08Z</time>
      </trkpt>
      <trkpt lat="44.33212" lon="3.70899">
        <ele>1140.1</ele>
        <time>2020-08-21T06:52:38Z</time>
      </trkpt>
      <trkpt lat="44.33241" lon="3.70781">
        <ele>1140.6</ele>
        <time>2020-08-21T06:53:03Z</time>
      </trkpt>
      <trkpt lat="44.33247" lon="3.70652">
        <ele>1141.6</ele>
        <time>2020-08-21T06:53:28Z</time>
      </trkpt>
      <trkpt lat="44.33156" lon="3.70596">
        <ele>1143.1</ele>
        <time>2020-08-21T06:54:13Z</time>
      </trkpt>
      <trkpt lat="44.33056" lon="3.70603">
        <ele>1143.5</ele>
        <time>2020-08-21T06:54:43Z</time>
      </trkpt>
      <trkpt lat="44.32999" lon="3.7049">
        <ele>1144.2</ele>
        <time>2020-08-21T06:55:13Z</time>
      </trkpt>
      <trkpt lat="44.32977" lon="3.70355">
        <ele>1144.9</ele>
        <time>2020-08-21T06:55:43Z</time>
      </trkpt>
      <trkpt lat="44.32885" lon="3.70276">
        <ele>1146</ele>
        <time>2020-08-21T06:56:13Z</time>
      </trkpt>
      <trkpt lat="44.32827" lon="3.70167">
        <ele>1146.8</ele>
        <time>2020-08-21T06:56:38Z</time>
      </trkpt>
      <trkpt lat="44.32716" lon="3.70164">
        <ele>1147.2</ele>
        <time>2020-08-21T06:57:03Z</time>
      </trkpt>
      <trkpt lat="44.32614" lon="3.70189">
        <ele>1147.8</ele>
        <time>2020-08-21T06:57:23Z</time>
      </trkpt>
      <trkpt lat="44.32542" lon="3.70278">
        <ele>1148</ele>
        <time>2020-08-21T06:57:43Z</time>
      </trkpt>
      <trkpt lat="44.32473" lon="3.7036">
        <ele>1148.4</ele>
        <time>2020-08-21T06:58:03Z</time>
      </trkpt>
      <trkpt lat="44.32429" lon="3.70239">
        <ele>1148.8</ele>
        <time>2020-08-21T06:58:43Z</time>
      </trkpt>
      <trkpt lat="44.32455" lon="3.7011">
        <ele>1148.6</ele>
        <time>2020-08-21T06:59:03Z</time>
      </trkpt>
      <trkpt lat="44.32489" lon="3.69985">
        <ele>1148.5</ele>
        <time>2020-08-21T06:59:23Z</time>
      </trkpt>
      <trkpt lat="44.32545" lon="3.69861">
        <ele>1148.7</ele>
        <time>2020-08-21T06:59:48Z</time>
      </trkpt>
      <trkpt lat="44.32612" lon="3.69743">
        <ele>1149</ele>
        <time>2020-08-21T07:00:08Z</time>
      </trkpt>
      <trkpt lat="44.32677" lon="3.69631">
        <ele>1149.2</ele>
        <time>2020-08-21T07:00:28Z</time>
      </trkpt>
      <trkpt lat="44.32722" lon="3.69491">
        <ele>1149</ele>
        <time>2020-08-21T07:00:48Z</time>
      </trkpt>
      <trkpt lat="44.32751" lon="3.69353">
        <ele>1148.4</ele>
        <time>2020-08-21T07:01:13Z</time>
      </trkpt>
      <trkpt lat="44.32783" lon="3.69205">
        <ele>1148.2</ele>
        <time>2020-08-21T07:01:38Z</time>
      </trkpt>
      <trkpt lat="44.32809" lon="3.69074">
        <ele>1147.7</ele>
        <time>2020-08-21T07:02:13Z</time>
      </trkpt>
      <trkpt lat="44.32865" lon="3.68959">
        <ele>1147.9</ele>
        <time>2020-08-21T07:02:48Z</time>
      </trkpt>
      <trkpt lat="44.32828" lon="3.68835">
        <ele>1147.4</ele>
        <time>2020-08-21T07:03:34Z</time>
      </trkpt>
      <trkpt lat="44.32721" lon="3.68865">
        <ele>1147.6</ele>
        <time>2020-08-21T07:03:54Z</time>
      </trkpt>
      <trkpt lat="44.32642" lon="3.68778">
        <ele>1147.5</ele>
        <time>2020-08-21T07:04:14Z</time>
      </trkpt>
      <trkpt lat="44.3258" lon="3.68631">
        <ele>1146.9</ele>
        <time>2020-08-21T07:04:34Z</time>
      </trkpt>
      <trkpt lat="44.32499" lon="3.68568">
        <ele>1131.6</ele>
        <time>2020-08-21T07:12:14Z</time>
      </trkpt>
      <trkpt lat="44.32432" lon="3.68475">
        <ele>1126.8</ele>
        <time>2020-08-21T07:12:29Z</time>
      </trkpt>
      <trkpt lat="44.32379" lon="3.68303">
        <ele>1123.7</ele>
        <time>2020-08-21T07:12:44Z</time>
      </trkpt>
      <trkpt lat="44.32357" lon="3.68165">
        <ele>1119.9</ele>
        <time>2020-08-21T07:12:54Z</time>
      </trkpt>
      <trkpt lat="44.32376" lon="3.67975">
        <ele>1110.2</ele>
        <time>2020-08-21T07:13:09Z</time>
      </trkpt>
      <trkpt lat="44.32388" lon="3.67837">
        <ele>1102.9</ele>
        <time>2020-08-21T07:13:19Z</time>
      </trkpt>
      <trkpt lat="44.32375" lon="3.67702">
        <ele>1094.7</ele>
        <time>2020-08-21T07:13:29Z</time>
      </trkpt>
      <trkpt lat="44.32348" lon="3.67569">
        <ele>1089.8</ele>
        <time>2020-08-21T07:13:39Z</time>
      </trkpt>
      <trkpt lat="44.32339" lon="3.67421">
        <ele>1086.7</ele>
        <time>2020-08-21T07:13:49Z</time>
      </trkpt>
      <trkpt lat="44.32306" lon="3.6726">
        <ele>1082.3</ele>
        <time>2020-08-21T07:13:59Z</time>
      </trkpt>
      <trkpt lat="44.32247" lon="3.67123">
        <ele>1072.1</ele>
        <time>2020-08-21T07:14:09Z</time>
      </trkpt>
      <trkpt lat="44.32154" lon="3.67033">
        <ele>1060.1</ele>
        <time>2020-08-21T07:14:19Z</time>
      </trkpt>
      <trkpt lat="44.32116" lon="3.66912">
        <ele>1047</ele>
        <time>2020-08-21T07:14:29Z</time>
      </trkpt>
      <trkpt lat="44.32109" lon="3.66782">
        <ele>1037.5</ele>
        <time>2020-08-21T07:14:39Z</time>
      </trkpt>
      <trkpt lat="44.32018" lon="3.66658">
        <ele>1031.5</ele>
        <time>2020-08-21T07:14:54Z</time>
      </trkpt>
      <trkpt lat="44.31991" lon="3.66535">
        <ele>1023.6</ele>
        <time>2020-08-21T07:15:04Z</time>
      </trkpt>
      <trkpt lat="44.31951" lon="3.66377">
        <ele>1004</ele>
        <time>2020-08-21T07:15:19Z</time>
      </trkpt>
      <trkpt lat="44.31959" lon="3.66219">
        <ele>993.8</ele>
        <time>2020-08-21T07:15:34Z</time>
      </trkpt>
      <trkpt lat="44.31956" lon="3.66076">
        <ele>983.3</ele>
        <time>2020-08-21T07:15:49Z</time>
      </trkpt>
      <trkpt lat="44.3185" lon="3.66071">
        <ele>969.1</ele>
        <time>2020-08-21T07:16:04Z</time>
      </trkpt>
      <trkpt lat="44.31776" lon="3.65935">
        <ele>954.6</ele>
        <time>2020-08-21T07:16:19Z</time>
      </trkpt>
      <trkpt lat="44.3167" lon="3.65928">
        <ele>939.3</ele>
        <time>2020-08-21T07:16:38Z</time>
      </trkpt>
      <trkpt lat="44.31543" lon="3.65969">
        <ele>928.4</ele>
        <time>2020-08-21T07:16:53Z</time>
      </trkpt>
      <trkpt lat="44.3145" lon="3.65937">
        <ele>920.6</ele>
        <time>2020-08-21T07:17:03Z</time>
      </trkpt>
      <trkpt lat="44.3132" lon="3.65867">
        <ele>908.6</ele>
        <time>2020-08-21T07:17:18Z</time>
      </trkpt>
      <trkpt lat="44.31291" lon="3.65706">
        <ele>898.7</ele>
        <time>2020-08-21T07:17:33Z</time>
      </trkpt>
      <trkpt lat="44.31223" lon="3.65839">
        <ele>877.1</ele>
        <time>2020-08-21T07:18:13Z</time>
      </trkpt>
      <trkpt lat="44.31274" lon="3.65957">
        <ele>872.7</ele>
        <time>2020-08-21T07:18:23Z</time>
      </trkpt>
      <trkpt lat="44.31335" lon="3.66136">
        <ele>862.1</ele>
        <time>2020-08-21T07:18:38Z</time>
      </trkpt>
      <trkpt lat="44.31425" lon="3.66258">
        <ele>848.6</ele>
        <time>2020-08-21T07:18:53Z</time>
      </trkpt>
      <trkpt lat="44.31315" lon="3.66257">
        <ele>827</ele>
        <time>2020-08-21T07:19:29Z</time>
      </trkpt>
      <trkpt lat="44.31232" lon="3.66181">
        <ele>819.5</ele>
        <time>2020-08-21T07:19:39Z</time>
      </trkpt>
      <trkpt lat="44.31134" lon="3.66116">
        <ele>812.6</ele>
        <time>2020-08-21T07:19:49Z</time>
      </trkpt>
      <trkpt lat="44.3105" lon="3.66063">
        <ele>806.3</ele>
        <time>2020-08-21T07:19:59Z</time>
      </trkpt>
      <trkpt lat="44.31043" lon="3.65936">
        <ele>799.6</ele>
        <time>2020-08-21T07:20:09Z</time>
      </trkpt>
      <trkpt lat="44.3103" lon="3.65792">
        <ele>789.4</ele>
        <time>2020-08-21T07:20:19Z</time>
      </trkpt>
      <trkpt lat="44.30992" lon="3.65929">
        <ele>761.2</ele>
        <time>2020-08-21T07:20:49Z</time>
      </trkpt>
      <trkpt lat="44.30954" lon="3.66074">
        <ele>752.1</ele>
        <time>2020-08-21T07:20:59Z</time>
      </trkpt>
      <trkpt lat="44.30968" lon="3.66238">
        <ele>745</ele>
        <time>2020-08-21T07:21:14Z</time>
      </trkpt>
      <trkpt lat="44.30873" lon="3.66145">
        <ele>719.4</ele>
        <time>2020-08-21T07:21:49Z</time>
      </trkpt>
      <trkpt lat="44.30918" lon="3.66303">
        <ele>704.1</ele>
        <time>2020-08-21T07:22:19Z</time>
      </trkpt>
      <trkpt lat="44.30827" lon="3.66273">
        <ele>692.4</ele>
        <time>2020-08-21T07:22:59Z</time>
      </trkpt>
      <trkpt lat="44.30731" lon="3.66201">
        <ele>691.7</ele>
        <time>2020-08-21T07:23:29Z</time>
      </trkpt>
      <trkpt lat="44.3068" lon="3.66089">
        <ele>689.5</ele>
        <time>2020-08-21T07:23:54Z</time>
      </trkpt>
      <trkpt lat="44.30606" lon="3.65982">
        <ele>689.1</ele>
        <time>2020-08-21T07:26:36Z</time>
      </trkpt>
      <trkpt lat="44.30501" lon="3.66058">
        <ele>685.7</ele>
        <time>2020-08-21T07:26:56Z</time>
      </trkpt>
      <trkpt lat="44.30433" lon="3.66156">
        <ele>682.8</ele>
        <time>2020-08-21T07:27:11Z</time>
      </trkpt>
      <trkpt lat="44.3037" lon="3.6625">
        <ele>682.2</ele>
        <time>2020-08-21T07:27:46Z</time>
      </trkpt>
      <trkpt lat="44.30309" lon="3.66377">
        <ele>685.2</ele>
        <time>2020-08-21T07:28:41Z</time>
      </trkpt>
      <trkpt lat="44.30208" lon="3.66472">
        <ele>685.6</ele>
        <time>2020-08-21T07:29:01Z</time>
      </trkpt>
      <trkpt lat="44.30112" lon="3.66408">
        <ele>682.4</ele>
        <time>2020-08-21T07:29:16Z</time>
      </trkpt>
      <trkpt lat="44.30053" lon="3.66287">
        <ele>672.3</ele>
        <time>2020-08-21T07:29:51Z</time>
      </trkpt>
      <trkpt lat="44.29947" lon="3.66272">
        <ele>671.8</ele>
        <time>2020-08-21T07:30:21Z</time>
      </trkpt>
      <trkpt lat="44.29864" lon="3.66332">
        <ele>674.7</ele>
        <time>2020-08-21T07:30:56Z</time>
      </trkpt>
      <trkpt lat="44.29786" lon="3.66416">
        <ele>678.8</ele>
        <time>2020-08-21T07:31:41Z</time>
      </trkpt>
      <trkpt lat="44.29725" lon="3.66505">
        <ele>681.5</ele>
        <time>2020-08-21T07:32:21Z</time>
      </trkpt>
      <trkpt lat="44.2969" lon="3.66624">
        <ele>683</ele>
        <time>2020-08-21T07:33:01Z</time>
      </trkpt>
      <trkpt lat="44.29662" lon="3.66753">
        <ele>683.3</ele>
        <time>2020-08-21T07:33:46Z</time>
      </trkpt>
      <trkpt lat="44.29651" lon="3.66622">
        <ele>687.5</ele>
        <time>2020-08-21T07:35:10Z</time>
      </trkpt>
      <trkpt lat="44.29662" lon="3.66488">
        <ele>689.8</ele>
        <time>2020-08-21T07:36:14Z</time>
      </trkpt>
      <trkpt lat="44.2971" lon="3.66377">
        <ele>692.9</ele>
        <time>2020-08-21T07:37:10Z</time>
      </trkpt>
      <trkpt lat="44.29624" lon="3.66437">
        <ele>702.5</ele>
        <time>2020-08-21T07:39:26Z</time>
      </trkpt>
      <trkpt lat="44.29565" lon="3.6653">
        <ele>707.4</ele>
        <time>2020-08-21T07:40:20Z</time>
      </trkpt>
      <trkpt lat="44.29515" lon="3.66634">
        <ele>715.1</ele>
        <time>2020-08-21T07:41:16Z</time>
      </trkpt>
      <trkpt lat="44.29521" lon="3.66507">
        <ele>751.8</ele>
        <time>2020-08-21T07:43:26Z</time>
      </trkpt>
      <trkpt lat="44.29566" lon="3.6639">
        <ele>763.2</ele>
        <time>2020-08-21T07:44:26Z</time>
      </trkpt>
      <trkpt lat="44.29556" lon="3.66258">
        <ele>771.5</ele>
        <time>2020-08-21T07:45:32Z</time>
      </trkpt>
      <trkpt lat="44.2953" lon="3.6638">
        <ele>776.4</ele>
        <time>2020-08-21T07:46:44Z</time>
      </trkpt>
      <trkpt lat="44.29455" lon="3.66464">
        <ele>779.1</ele>
        <time>2020-08-21T07:47:54Z</time>
      </trkpt>
      <trkpt lat="44.29373" lon="3.66515">
        <ele>782</ele>
        <time>2020-08-21T07:48:49Z</time>
      </trkpt>
      <trkpt lat="44.29282" lon="3.6656">
        <ele>789.2</ele>
        <time>2020-08-21T07:49:55Z</time>
      </trkpt>
      <trkpt lat="44.29331" lon="3.66451">
        <ele>809.5</ele>
        <time>2020-08-21T07:51:43Z</time>
      </trkpt>
      <trkpt lat="44.29382" lon="3.66349">
        <ele>821</ele>
        <time>2020-08-21T07:52:47Z</time>
      </trkpt>
      <trkpt lat="44.2935" lon="3.66225">
        <ele>829.2</ele>
        <time>2020-08-21T07:54:06Z</time>
      </trkpt>
      <trkpt lat="44.29276" lon="3.66133">
        <ele>833.4</ele>
        <time>2020-08-21T07:55:18Z</time>
      </trkpt>
      <trkpt lat="44.2922" lon="3.66022">
        <ele>837</ele>
        <time>2020-08-21T07:56:27Z</time>
      </trkpt>
      <trkpt lat="44.29143" lon="3.65942">
        <ele>841.7</ele>
        <time>2020-08-21T07:57:33Z</time>
      </trkpt>
      <trkpt lat="44.29051" lon="3.65928">
        <ele>852.2</ele>
        <time>2020-08-21T07:58:52Z</time>
      </trkpt>
      <trkpt lat="44.28958" lon="3.65918">
        <ele>863.8</ele>
        <time>2020-08-21T08:00:09Z</time>
      </trkpt>
      <trkpt lat="44.28872" lon="3.65972">
        <ele>871.4</ele>
        <time>2020-08-21T08:01:18Z</time>
      </trkpt>
      <trkpt lat="44.288" lon="3.66048">
        <ele>875.7</ele>
        <time>2020-08-21T08:02:14Z</time>
      </trkpt>
      <trkpt lat="44.28766" lon="3.66174">
        <ele>880.8</ele>
        <time>2020-08-21T08:03:22Z</time>
      </trkpt>
      <trkpt lat="44.28733" lon="3.663">
        <ele>885.8</ele>
        <time>2020-08-21T08:04:22Z</time>
      </trkpt>
      <trkpt lat="44.28643" lon="3.66346">
        <ele>894.2</ele>
        <time>2020-08-21T08:05:39Z</time>
      </trkpt>
      <trkpt lat="44.28601" lon="3.6646">
        <ele>903.3</ele>
        <time>2020-08-21T08:06:50Z</time>
      </trkpt>
      <trkpt lat="44.28553" lon="3.66568">
        <ele>908.8</ele>
        <time>2020-08-21T08:07:51Z</time>
      </trkpt>
      <trkpt lat="44.28585" lon="3.66691">
        <ele>917.2</ele>
        <time>2020-08-21T08:09:23Z</time>
      </trkpt>
      <trkpt lat="44.28542" lon="3.66814">
        <ele>921.9</ele>
        <time>2020-08-21T08:10:03Z</time>
      </trkpt>
      <trkpt lat="44.28502" lon="3.66935">
        <ele>924.9</ele>
        <time>2020-08-21T08:10:33Z</time>
      </trkpt>
      <trkpt lat="44.28447" lon="3.67036">
        <ele>925.9</ele>
        <time>2020-08-21T08:11:03Z</time>
      </trkpt>
      <trkpt lat="44.28369" lon="3.67133">
        <ele>927.6</ele>
        <time>2020-08-21T08:11:33Z</time>
      </trkpt>
      <trkpt lat="44.28289" lon="3.67219">
        <ele>930</ele>
        <time>2020-08-21T08:12:03Z</time>
      </trkpt>
      <trkpt lat="44.28187" lon="3.67258">
        <ele>931.6</ele>
        <time>2020-08-21T08:12:33Z</time>
      </trkpt>
      <trkpt lat="44.28103" lon="3.67303">
        <ele>932.4</ele>
        <time>2020-08-21T08:13:29Z</time>
      </trkpt>
      <trkpt lat="44.2802" lon="3.67363">
        <ele>933.3</ele>
        <time>2020-08-21T08:14:09Z</time>
      </trkpt>
      <trkpt lat="44.27924" lon="3.67363">
        <ele>934.7</ele>
        <time>2020-08-21T08:15:02Z</time>
      </trkpt>
      <trkpt lat="44.27834" lon="3.67286">
        <ele>938</ele>
        <time>2020-08-21T08:16:27Z</time>
      </trkpt>
      <trkpt lat="44.27791" lon="3.67158">
        <ele>941</ele>
        <time>2020-08-21T08:17:08Z</time>
      </trkpt>
      <trkpt lat="44.27741" lon="3.67033">
        <ele>947.9</ele>
        <time>2020-08-21T08:18:10Z</time>
      </trkpt>
      <trkpt lat="44.27699" lon="3.66909">
        <ele>956</ele>
        <time>2020-08-21T08:18:35Z</time>
      </trkpt>
      <trkpt lat="44.27654" lon="3.66772">
        <ele>959.3</ele>
        <time>2020-08-21T08:19:05Z</time>
      </trkpt>
      <trkpt lat="44.27581" lon="3.66683">
        <ele>961</ele>
        <time>2020-08-21T08:19:45Z</time>
      </trkpt>
      <trkpt lat="44.27509" lon="3.66597">
        <ele>964.1</ele>
        <time>2020-08-21T08:20:33Z</time>
      </trkpt>
      <trkpt lat="44.27435" lon="3.66503">
        <ele>969.1</ele>
        <time>2020-08-21T08:21:30Z</time>
      </trkpt>
      <trkpt lat="44.27358" lon="3.66428">
        <ele>973.3</ele>
        <time>2020-08-21T08:22:18Z</time>
      </trkpt>
      <trkpt lat="44.27305" lon="3.66319">
        <ele>977</ele>
        <time>2020-08-21T08:22:56Z</time>
      </trkpt>
      <trkpt lat="44.27222" lon="3.66254">
        <ele>979.9</ele>
        <time>2020-08-21T08:23:31Z</time>
      </trkpt>
      <trkpt lat="44.27149" lon="3.66152">
        <ele>982.7</ele>
        <time>2020-08-21T08:24:06Z</time>
      </trkpt>
      <trkpt lat="44.27075" lon="3.66074">
        <ele>985.3</ele>
        <time>2020-08-21T08:24:36Z</time>
      </trkpt>
      <trkpt lat="44.26992" lon="3.6602">
        <ele>987.3</ele>
        <time>2020-08-21T08:25:06Z</time>
      </trkpt>
      <trkpt lat="44.26976" lon="3.65895">
        <ele>989.4</ele>
        <time>2020-08-21T08:25:41Z</time>
      </trkpt>
      <trkpt lat="44.26893" lon="3.65803">
        <ele>991</ele>
        <time>2020-08-21T08:26:16Z</time>
      </trkpt>
      <trkpt lat="44.26855" lon="3.65685">
        <ele>992.2</ele>
        <time>2020-08-21T08:26:51Z</time>
      </trkpt>
      <trkpt lat="44.26843" lon="3.65556">
        <ele>993.5</ele>
        <time>2020-08-21T08:27:32Z</time>
      </trkpt>
      <trkpt lat="44.26768" lon="3.65464">
        <ele>995.3</ele>
        <time>2020-08-21T08:28:23Z</time>
      </trkpt>
      <trkpt lat="44.26686" lon="3.65377">
        <ele>996.9</ele>
        <time>2020-08-21T08:29:03Z</time>
      </trkpt>
      <trkpt lat="44.26597" lon="3.65336">
        <ele>998.6</ele>
        <time>2020-08-21T08:29:33Z</time>
      </trkpt>
      <trkpt lat="44.26481" lon="3.65305">
        <ele>1000.1</ele>
        <time>2020-08-21T08:29:53Z</time>
      </trkpt>
      <trkpt lat="44.26397" lon="3.65201">
        <ele>1000.8</ele>
        <time>2020-08-21T08:30:13Z</time>
      </trkpt>
      <trkpt lat="44.26306" lon="3.65164">
        <ele>1001.5</ele>
        <time>2020-08-21T08:30:48Z</time>
      </trkpt>
      <trkpt lat="44.2621" lon="3.65139">
        <ele>1000.5</ele>
        <time>2020-08-21T08:31:08Z</time>
      </trkpt>
      <trkpt lat="44.26114" lon="3.65115">
        <ele>1001.1</ele>
        <time>2020-08-21T08:31:43Z</time>
      </trkpt>
      <trkpt lat="44.26032" lon="3.65037">
        <ele>1004.3</ele>
        <time>2020-08-21T08:32:34Z</time>
      </trkpt>
      <trkpt lat="44.25937" lon="3.65038">
        <ele>1006.1</ele>
        <time>2020-08-21T08:33:19Z</time>
      </trkpt>
      <trkpt lat="44.25858" lon="3.64965">
        <ele>1010</ele>
        <time>2020-08-21T08:34:21Z</time>
      </trkpt>
      <trkpt lat="44.25767" lon="3.64934">
        <ele>1013.8</ele>
        <time>2020-08-21T08:35:10Z</time>
      </trkpt>
      <trkpt lat="44.25684" lon="3.64867">
        <ele>1014.9</ele>
        <time>2020-08-21T08:35:25Z</time>
      </trkpt>
      <trkpt lat="44.25556" lon="3.64816">
        <ele>1017</ele>
        <time>2020-08-21T08:36:08Z</time>
      </trkpt>
      <trkpt lat="44.25457" lon="3.64847">
        <ele>1014.1</ele>
        <time>2020-08-21T08:36:18Z</time>
      </trkpt>
      <trkpt lat="44.25352" lon="3.64845">
        <ele>1006.9</ele>
        <time>2020-08-21T08:36:28Z</time>
      </trkpt>
      <trkpt lat="44.25255" lon="3.64913">
        <ele>994.3</ele>
        <time>2020-08-21T08:36:38Z</time>
      </trkpt>
      <trkpt lat="44.2516" lon="3.65007">
        <ele>987</ele>
        <time>2020-08-21T08:36:48Z</time>
      </trkpt>
      <trkpt lat="44.25075" lon="3.65089">
        <ele>981.3</ele>
        <time>2020-08-21T08:36:58Z</time>
      </trkpt>
      <trkpt lat="44.24965" lon="3.65053">
        <ele>972.7</ele>
        <time>2020-08-21T08:37:13Z</time>
      </trkpt>
      <trkpt lat="44.24913" lon="3.65165">
        <ele>964.5</ele>
        <time>2020-08-21T08:37:57Z</time>
      </trkpt>
      <trkpt lat="44.2485" lon="3.65057">
        <ele>957.9</ele>
        <time>2020-08-21T08:39:56Z</time>
      </trkpt>
      <trkpt lat="44.24751" lon="3.65078">
        <ele>964.4</ele>
        <time>2020-08-21T08:46:29Z</time>
      </trkpt>
      <trkpt lat="44.24668" lon="3.65142">
        <ele>965.8</ele>
        <time>2020-08-21T08:47:09Z</time>
      </trkpt>
      <trkpt lat="44.24753" lon="3.65084">
        <ele>966.9</ele>
        <time>2020-08-21T08:49:33Z</time>
      </trkpt>
      <trkpt lat="44.2481" lon="3.64987">
        <ele>966.8</ele>
        <time>2020-08-21T08:49:53Z</time>
      </trkpt>
      <trkpt lat="44.24818" lon="3.64849">
        <ele>966.5</ele>
        <time>2020-08-21T08:50:33Z</time>
      </trkpt>
      <trkpt lat="44.24861" lon="3.6472">
        <ele>964.7</ele>
        <time>2020-08-21T08:51:08Z</time>
      </trkpt>
      <trkpt lat="44.24917" lon="3.64567">
        <ele>961.6</ele>
        <time>2020-08-21T08:51:23Z</time>
      </trkpt>
      <trkpt lat="44.24994" lon="3.64468">
        <ele>959.1</ele>
        <time>2020-08-21T08:51:33Z</time>
      </trkpt>
      <trkpt lat="44.25055" lon="3.64368">
        <ele>957.9</ele>
        <time>2020-08-21T08:51:43Z</time>
      </trkpt>
      <trkpt lat="44.25101" lon="3.6424">
        <ele>956.6</ele>
        <time>2020-08-21T08:51:58Z</time>
      </trkpt>
      <trkpt lat="44.25159" lon="3.64127">
        <ele>956.5</ele>
        <time>2020-08-21T08:52:18Z</time>
      </trkpt>
      <trkpt lat="44.25252" lon="3.64088">
        <ele>958.8</ele>
        <time>2020-08-21T08:53:21Z</time>
      </trkpt>
      <trkpt lat="44.2533" lon="3.64019">
        <ele>961.9</ele>
        <time>2020-08-21T08:54:07Z</time>
      </trkpt>
      <trkpt lat="44.2541" lon="3.63955">
        <ele>964.5</ele>
        <time>2020-08-21T08:54:42Z</time>
      </trkpt>
      <trkpt lat="44.25489" lon="3.63884">
        <ele>967.9</ele>
        <time>2020-08-21T08:55:07Z</time>
      </trkpt>
      <trkpt lat="44.25575" lon="3.6379">
        <ele>967.8</ele>
        <time>2020-08-21T08:55:27Z</time>
      </trkpt>
      <trkpt lat="44.25625" lon="3.63673">
        <ele>967.5</ele>
        <time>2020-08-21T08:55:47Z</time>
      </trkpt>
      <trkpt lat="44.25663" lon="3.63559">
        <ele>966.9</ele>
        <time>2020-08-21T08:56:12Z</time>
      </trkpt>
      <trkpt lat="44.25686" lon="3.63431">
        <ele>968.7</ele>
        <time>2020-08-21T08:56:51Z</time>
      </trkpt>
      <trkpt lat="44.25711" lon="3.63309">
        <ele>972</ele>
        <time>2020-08-21T08:57:47Z</time>
      </trkpt>
      <trkpt lat="44.25778" lon="3.63214">
        <ele>975.7</ele>
        <time>2020-08-21T08:58:46Z</time>
      </trkpt>
      <trkpt lat="44.25833" lon="3.631">
        <ele>980.2</ele>
        <time>2020-08-21T08:59:47Z</time>
      </trkpt>
      <trkpt lat="44.25906" lon="3.63014">
        <ele>987.4</ele>
        <time>2020-08-21T09:00:58Z</time>
      </trkpt>
      <trkpt lat="44.25981" lon="3.62933">
        <ele>994.4</ele>
        <time>2020-08-21T09:02:07Z</time>
      </trkpt>
      <trkpt lat="44.26029" lon="3.6282">
        <ele>999.5</ele>
        <time>2020-08-21T09:03:14Z</time>
      </trkpt>
      <trkpt lat="44.26046" lon="3.62695">
        <ele>1003.5</ele>
        <time>2020-08-21T09:04:07Z</time>
      </trkpt>
      <trkpt lat="44.26041" lon="3.62565">
        <ele>1006.3</ele>
        <time>2020-08-21T09:04:52Z</time>
      </trkpt>
      <trkpt lat="44.26031" lon="3.62436">
        <ele>1008.8</ele>
        <time>2020-08-21T09:05:39Z</time>
      </trkpt>
      <trkpt lat="44.26037" lon="3.62281">
        <ele>1013.8</ele>
        <time>2020-08-21T09:07:28Z</time>
      </trkpt>
      <trkpt lat="44.2595" lon="3.62216">
        <ele>1016.9</ele>
        <time>2020-08-21T09:08:31Z</time>
      </trkpt>
      <trkpt lat="44.25854" lon="3.62218">
        <ele>1026.5</ele>
        <time>2020-08-21T09:09:47Z</time>
      </trkpt>
      <trkpt lat="44.25757" lon="3.62242">
        <ele>1035.1</ele>
        <time>2020-08-21T09:10:55Z</time>
      </trkpt>
      <trkpt lat="44.25669" lon="3.62268">
        <ele>1041.4</ele>
        <time>2020-08-21T09:11:51Z</time>
      </trkpt>
      <trkpt lat="44.25575" lon="3.62291">
        <ele>1047.7</ele>
        <time>2020-08-21T09:12:47Z</time>
      </trkpt>
      <trkpt lat="44.25479" lon="3.62317">
        <ele>1052</ele>
        <time>2020-08-21T09:13:33Z</time>
      </trkpt>
      <trkpt lat="44.25387" lon="3.62343">
        <ele>1054.2</ele>
        <time>2020-08-21T09:14:08Z</time>
      </trkpt>
      <trkpt lat="44.25297" lon="3.62368">
        <ele>1055.9</ele>
        <time>2020-08-21T09:14:38Z</time>
      </trkpt>
      <trkpt lat="44.25197" lon="3.624">
        <ele>1057.8</ele>
        <time>2020-08-21T09:15:13Z</time>
      </trkpt>
      <trkpt lat="44.25108" lon="3.62447">
        <ele>1062</ele>
        <time>2020-08-21T09:15:38Z</time>
      </trkpt>
      <trkpt lat="44.2501" lon="3.62502">
        <ele>1063.3</ele>
        <time>2020-08-21T09:16:03Z</time>
      </trkpt>
      <trkpt lat="44.24919" lon="3.62559">
        <ele>1064.3</ele>
        <time>2020-08-21T09:16:28Z</time>
      </trkpt>
      <trkpt lat="44.2483" lon="3.62606">
        <ele>1065</ele>
        <time>2020-08-21T09:16:48Z</time>
      </trkpt>
      <trkpt lat="44.24723" lon="3.62524">
        <ele>1065.1</ele>
        <time>2020-08-21T09:17:08Z</time>
      </trkpt>
      <trkpt lat="44.24639" lon="3.62391">
        <ele>1064.3</ele>
        <time>2020-08-21T09:17:23Z</time>
      </trkpt>
      <trkpt lat="44.24577" lon="3.62295">
        <ele>1063</ele>
        <time>2020-08-21T09:17:33Z</time>
      </trkpt>
      <trkpt lat="44.24495" lon="3.62196">
        <ele>1061.2</ele>
        <time>2020-08-21T09:17:48Z</time>
      </trkpt>
      <trkpt lat="44.24406" lon="3.62137">
        <ele>1060.6</ele>
        <time>2020-08-21T09:18:18Z</time>
      </trkpt>
      <trkpt lat="44.24343" lon="3.62032">
        <ele>1060.5</ele>
        <time>2020-08-21T09:19:08Z</time>
      </trkpt>
      <trkpt lat="44.24281" lon="3.61918">
        <ele>1060.4</ele>
        <time>2020-08-21T09:19:53Z</time>
      </trkpt>
      <trkpt lat="44.24217" lon="3.61807">
        <ele>1061.9</ele>
        <time>2020-08-21T09:21:53Z</time>
      </trkpt>
      <trkpt lat="44.24149" lon="3.61705">
        <ele>1061.2</ele>
        <time>2020-08-21T09:22:13Z</time>
      </trkpt>
      <trkpt lat="44.24046" lon="3.61663">
        <ele>1060.4</ele>
        <time>2020-08-21T09:22:33Z</time>
      </trkpt>
      <trkpt lat="44.23943" lon="3.61681">
        <ele>1059.1</ele>
        <time>2020-08-21T09:22:53Z</time>
      </trkpt>
      <trkpt lat="44.23834" lon="3.61711">
        <ele>1058.4</ele>
        <time>2020-08-21T09:23:13Z</time>
      </trkpt>
      <trkpt lat="44.23734" lon="3.61706">
        <ele>1058.7</ele>
        <time>2020-08-21T09:23:43Z</time>
      </trkpt>
      <trkpt lat="44.23642" lon="3.61709">
        <ele>1059.6</ele>
        <time>2020-08-21T09:24:23Z</time>
      </trkpt>
      <trkpt lat="44.23549" lon="3.61737">
        <ele>1061.8</ele>
        <time>2020-08-21T09:25:03Z</time>
      </trkpt>
      <trkpt lat="44.23455" lon="3.61771">
        <ele>1065.3</ele>
        <time>2020-08-21T09:25:43Z</time>
      </trkpt>
      <trkpt lat="44.23344" lon="3.61825">
        <ele>1070.1</ele>
        <time>2020-08-21T09:26:08Z</time>
      </trkpt>
      <trkpt lat="44.23257" lon="3.61861">
        <ele>1070.2</ele>
        <time>2020-08-21T09:26:28Z</time>
      </trkpt>
      <trkpt lat="44.23161" lon="3.61894">
        <ele>1070.2</ele>
        <time>2020-08-21T09:27:03Z</time>
      </trkpt>
      <trkpt lat="44.23066" lon="3.61894">
        <ele>1071.9</ele>
        <time>2020-08-21T09:27:50Z</time>
      </trkpt>
      <trkpt lat="44.22968" lon="3.61885">
        <ele>1077.1</ele>
        <time>2020-08-21T09:28:53Z</time>
      </trkpt>
      <trkpt lat="44.22869" lon="3.61872">
        <ele>1082.1</ele>
        <time>2020-08-21T09:29:51Z</time>
      </trkpt>
      <trkpt lat="44.22777" lon="3.61858">
        <ele>1085.4</ele>
        <time>2020-08-21T09:30:40Z</time>
      </trkpt>
      <trkpt lat="44.22665" lon="3.61892">
        <ele>1088.5</ele>
        <time>2020-08-21T09:31:05Z</time>
      </trkpt>
      <trkpt lat="44.22571" lon="3.61925">
        <ele>1088.3</ele>
        <time>2020-08-21T09:31:20Z</time>
      </trkpt>
      <trkpt lat="44.22466" lon="3.61984">
        <ele>1087.6</ele>
        <time>2020-08-21T09:31:40Z</time>
      </trkpt>
      <trkpt lat="44.22379" lon="3.62036">
        <ele>1086.4</ele>
        <time>2020-08-21T09:31:55Z</time>
      </trkpt>
      <trkpt lat="44.22299" lon="3.62097">
        <ele>1085.3</ele>
        <time>2020-08-21T09:32:10Z</time>
      </trkpt>
      <trkpt lat="44.22218" lon="3.62163">
        <ele>1084.2</ele>
        <time>2020-08-21T09:32:25Z</time>
      </trkpt>
      <trkpt lat="44.22122" lon="3.62228">
        <ele>1083.9</ele>
        <time>2020-08-21T09:32:45Z</time>
      </trkpt>
      <trkpt lat="44.22024" lon="3.62295">
        <ele>1083</ele>
        <time>2020-08-21T09:33:10Z</time>
      </trkpt>
      <trkpt lat="44.21934" lon="3.62356">
        <ele>1081.5</ele>
        <time>2020-08-21T09:33:30Z</time>
      </trkpt>
      <trkpt lat="44.21852" lon="3.62405">
        <ele>1081.2</ele>
        <time>2020-08-21T09:33:51Z</time>
      </trkpt>
      <trkpt lat="44.21767" lon="3.62462">
        <ele>1080.9</ele>
        <time>2020-08-21T09:34:11Z</time>
      </trkpt>
      <trkpt lat="44.21684" lon="3.62518">
        <ele>1080.5</ele>
        <time>2020-08-21T09:34:31Z</time>
      </trkpt>
      <trkpt lat="44.2159" lon="3.62581">
        <ele>1079.9</ele>
        <time>2020-08-21T09:34:51Z</time>
      </trkpt>
      <trkpt lat="44.21507" lon="3.62637">
        <ele>1079.7</ele>
        <time>2020-08-21T09:35:11Z</time>
      </trkpt>
      <trkpt lat="44.21418" lon="3.62687">
        <ele>1080.3</ele>
        <time>2020-08-21T09:35:46Z</time>
      </trkpt>
      <trkpt lat="44.21329" lon="3.62736">
        <ele>1080.3</ele>
        <time>2020-08-21T09:36:11Z</time>
      </trkpt>
      <trkpt lat="44.21231" lon="3.62798">
        <ele>1078.9</ele>
        <time>2020-08-21T09:36:31Z</time>
      </trkpt>
      <trkpt lat="44.21148" lon="3.62884">
        <ele>1078.2</ele>
        <time>2020-08-21T09:36:51Z</time>
      </trkpt>
      <trkpt lat="44.21076" lon="3.62973">
        <ele>1078.9</ele>
        <time>2020-08-21T09:37:26Z</time>
      </trkpt>
      <trkpt lat="44.21012" lon="3.63076">
        <ele>1081.1</ele>
        <time>2020-08-21T09:38:19Z</time>
      </trkpt>
      <trkpt lat="44.20963" lon="3.63179">
        <ele>1082.7</ele>
        <time>2020-08-21T09:38:54Z</time>
      </trkpt>
      <trkpt lat="44.20907" lon="3.63278">
        <ele>1084.3</ele>
        <time>2020-08-21T09:39:19Z</time>
      </trkpt>
      <trkpt lat="44.20823" lon="3.63358">
        <ele>1085.4</ele>
        <time>2020-08-21T09:39:44Z</time>
      </trkpt>
      <trkpt lat="44.20725" lon="3.63406">
        <ele>1085.6</ele>
        <time>2020-08-21T09:40:09Z</time>
      </trkpt>
      <trkpt lat="44.20631" lon="3.6345">
        <ele>1085.7</ele>
        <time>2020-08-21T09:40:44Z</time>
      </trkpt>
      <trkpt lat="44.20571" lon="3.6355">
        <ele>1085.7</ele>
        <time>2020-08-21T09:41:14Z</time>
      </trkpt>
      <trkpt lat="44.20519" lon="3.63665">
        <ele>1085.4</ele>
        <time>2020-08-21T09:41:39Z</time>
      </trkpt>
      <trkpt lat="44.20462" lon="3.63786">
        <ele>1085.3</ele>
        <time>2020-08-21T09:42:09Z</time>
      </trkpt>
      <trkpt lat="44.20401" lon="3.63884">
        <ele>1085.2</ele>
        <time>2020-08-21T09:42:39Z</time>
      </trkpt>
      <trkpt lat="44.20334" lon="3.63966">
        <ele>1085.1</ele>
        <time>2020-08-21T09:43:04Z</time>
      </trkpt>
      <trkpt lat="44.20258" lon="3.6406">
        <ele>1084.9</ele>
        <time>2020-08-21T09:43:34Z</time>
      </trkpt>
      <trkpt lat="44.20166" lon="3.64105">
        <ele>1084.5</ele>
        <time>2020-08-21T09:43:59Z</time>
      </trkpt>
      <trkpt lat="44.20031" lon="3.64082">
        <ele>1082.9</ele>
        <time>2020-08-21T09:44:14Z</time>
      </trkpt>
      <trkpt lat="44.19922" lon="3.6409">
        <ele>1081.8</ele>
        <time>2020-08-21T09:44:24Z</time>
      </trkpt>
      <trkpt lat="44.19832" lon="3.64187">
        <ele>1081.6</ele>
        <time>2020-08-21T09:44:34Z</time>
      </trkpt>
      <trkpt lat="44.19746" lon="3.6414">
        <ele>1079.7</ele>
        <time>2020-08-21T09:44:44Z</time>
      </trkpt>
      <trkpt lat="44.19804" lon="3.63996">
        <ele>1076.7</ele>
        <time>2020-08-21T09:44:54Z</time>
      </trkpt>
      <trkpt lat="44.19819" lon="3.63824">
        <ele>1069.5</ele>
        <time>2020-08-21T09:45:04Z</time>
      </trkpt>
      <trkpt lat="44.19759" lon="3.6371">
        <ele>1050.4</ele>
        <time>2020-08-21T09:45:14Z</time>
      </trkpt>
      <trkpt lat="44.19773" lon="3.63851">
        <ele>1038.9</ele>
        <time>2020-08-21T09:45:29Z</time>
      </trkpt>
      <trkpt lat="44.19728" lon="3.63987">
        <ele>1036.7</ele>
        <time>2020-08-21T09:45:39Z</time>
      </trkpt>
      <trkpt lat="44.19669" lon="3.6412">
        <ele>1034.8</ele>
        <time>2020-08-21T09:45:49Z</time>
      </trkpt>
      <trkpt lat="44.19645" lon="3.64286">
        <ele>1028.9</ele>
        <time>2020-08-21T09:45:59Z</time>
      </trkpt>
      <trkpt lat="44.19613" lon="3.64472">
        <ele>1014.1</ele>
        <time>2020-08-21T09:46:08Z</time>
      </trkpt>
      <trkpt lat="44.1951" lon="3.64524">
        <ele>997.6</ele>
        <time>2020-08-21T09:46:18Z</time>
      </trkpt>
      <trkpt lat="44.19408" lon="3.64523">
        <ele>994.8</ele>
        <time>2020-08-21T09:46:28Z</time>
      </trkpt>
      <trkpt lat="44.19316" lon="3.645">
        <ele>984.9</ele>
        <time>2020-08-21T09:46:38Z</time>
      </trkpt>
      <trkpt lat="44.19237" lon="3.64583">
        <ele>985.3</ele>
        <time>2020-08-21T09:46:48Z</time>
      </trkpt>
      <trkpt lat="44.19183" lon="3.64687">
        <ele>982.8</ele>
        <time>2020-08-21T09:46:58Z</time>
      </trkpt>
      <trkpt lat="44.1929" lon="3.64707">
        <ele>970.9</ele>
        <time>2020-08-21T09:47:08Z</time>
      </trkpt>
      <trkpt lat="44.1939" lon="3.64812">
        <ele>954.1</ele>
        <time>2020-08-21T09:47:18Z</time>
      </trkpt>
      <trkpt lat="44.1949" lon="3.64917">
        <ele>936.1</ele>
        <time>2020-08-21T09:47:33Z</time>
      </trkpt>
      <trkpt lat="44.19377" lon="3.64869">
        <ele>916.7</ele>
        <time>2020-08-21T09:47:53Z</time>
      </trkpt>
      <trkpt lat="44.19439" lon="3.65044">
        <ele>899.7</ele>
        <time>2020-08-21T09:48:18Z</time>
      </trkpt>
      <trkpt lat="44.19495" lon="3.65176">
        <ele>888.5</ele>
        <time>2020-08-21T09:48:28Z</time>
      </trkpt>
      <trkpt lat="44.19515" lon="3.6531">
        <ele>885.6</ele>
        <time>2020-08-21T09:48:38Z</time>
      </trkpt>
      <trkpt lat="44.19516" lon="3.65441">
        <ele>849.6</ele>
        <time>2020-08-21T09:55:45Z</time>
      </trkpt>
      <trkpt lat="44.19483" lon="3.653">
        <ele>829.6</ele>
        <time>2020-08-21T11:35:12Z</time>
      </trkpt>
      <trkpt lat="44.19429" lon="3.65176">
        <ele>828</ele>
        <time>2020-08-21T11:35:42Z</time>
      </trkpt>
      <trkpt lat="44.19342" lon="3.65212">
        <ele>826.5</ele>
        <time>2020-08-21T11:36:22Z</time>
      </trkpt>
      <trkpt lat="44.19288" lon="3.65327">
        <ele>826.2</ele>
        <time>2020-08-21T11:36:42Z</time>
      </trkpt>
      <trkpt lat="44.1921" lon="3.65234">
        <ele>824.9</ele>
        <time>2020-08-21T11:37:02Z</time>
      </trkpt>
      <trkpt lat="44.19128" lon="3.65354">
        <ele>823</ele>
        <time>2020-08-21T11:37:17Z</time>
      </trkpt>
      <trkpt lat="44.19056" lon="3.65452">
        <ele>820</ele>
        <time>2020-08-21T11:37:27Z</time>
      </trkpt>
      <trkpt lat="44.18965" lon="3.65509">
        <ele>816.4</ele>
        <time>2020-08-21T11:37:37Z</time>
      </trkpt>
      <trkpt lat="44.18871" lon="3.65447">
        <ele>798.6</ele>
        <time>2020-08-21T11:38:02Z</time>
      </trkpt>
      <trkpt lat="44.18769" lon="3.65557">
        <ele>792.8</ele>
        <time>2020-08-21T11:38:22Z</time>
      </trkpt>
      <trkpt lat="44.18647" lon="3.65601">
        <ele>784.5</ele>
        <time>2020-08-21T11:38:37Z</time>
      </trkpt>
      <trkpt lat="44.18552" lon="3.65675">
        <ele>776.9</ele>
        <time>2020-08-21T11:38:52Z</time>
      </trkpt>
      <trkpt lat="44.18462" lon="3.65664">
        <ele>773.2</ele>
        <time>2020-08-21T11:39:02Z</time>
      </trkpt>
      <trkpt lat="44.18336" lon="3.65678">
        <ele>765.7</ele>
        <time>2020-08-21T11:39:17Z</time>
      </trkpt>
      <trkpt lat="44.18252" lon="3.65718">
        <ele>758.5</ele>
        <time>2020-08-21T11:39:27Z</time>
      </trkpt>
      <trkpt lat="44.18138" lon="3.65663">
        <ele>750.5</ele>
        <time>2020-08-21T11:39:42Z</time>
      </trkpt>
      <trkpt lat="44.18018" lon="3.65677">
        <ele>740</ele>
        <time>2020-08-21T11:39:57Z</time>
      </trkpt>
      <trkpt lat="44.17902" lon="3.65594">
        <ele>731.4</ele>
        <time>2020-08-21T11:40:12Z</time>
      </trkpt>
      <trkpt lat="44.17809" lon="3.65605">
        <ele>726.8</ele>
        <time>2020-08-21T11:40:22Z</time>
      </trkpt>
      <trkpt lat="44.17686" lon="3.65539">
        <ele>721.6</ele>
        <time>2020-08-21T11:40:37Z</time>
      </trkpt>
      <trkpt lat="44.17602" lon="3.65479">
        <ele>716.3</ele>
        <time>2020-08-21T11:40:47Z</time>
      </trkpt>
      <trkpt lat="44.17479" lon="3.65518">
        <ele>705</ele>
        <time>2020-08-21T11:41:01Z</time>
      </trkpt>
      <trkpt lat="44.17377" lon="3.65544">
        <ele>698.2</ele>
        <time>2020-08-21T11:41:11Z</time>
      </trkpt>
      <trkpt lat="44.17267" lon="3.6545">
        <ele>686.1</ele>
        <time>2020-08-21T11:41:26Z</time>
      </trkpt>
      <trkpt lat="44.17169" lon="3.65412">
        <ele>678.3</ele>
        <time>2020-08-21T11:41:36Z</time>
      </trkpt>
      <trkpt lat="44.17067" lon="3.65415">
        <ele>671.9</ele>
        <time>2020-08-21T11:41:46Z</time>
      </trkpt>
      <trkpt lat="44.17094" lon="3.65246">
        <ele>662.5</ele>
        <time>2020-08-21T11:42:01Z</time>
      </trkpt>
      <trkpt lat="44.17099" lon="3.65115">
        <ele>655.2</ele>
        <time>2020-08-21T11:42:11Z</time>
      </trkpt>
      <trkpt lat="44.1709" lon="3.64989">
        <ele>648.9</ele>
        <time>2020-08-21T11:42:21Z</time>
      </trkpt>
      <trkpt lat="44.17057" lon="3.64862">
        <ele>634.6</ele>
        <time>2020-08-21T11:43:01Z</time>
      </trkpt>
      <trkpt lat="44.17116" lon="3.6474">
        <ele>626.3</ele>
        <time>2020-08-21T11:43:16Z</time>
      </trkpt>
      <trkpt lat="44.17195" lon="3.64676">
        <ele>621.4</ele>
        <time>2020-08-21T11:43:26Z</time>
      </trkpt>
      <trkpt lat="44.17294" lon="3.64591">
        <ele>615.6</ele>
        <time>2020-08-21T11:43:41Z</time>
      </trkpt>
      <trkpt lat="44.17175" lon="3.64576">
        <ele>603.9</ele>
        <time>2020-08-21T11:44:21Z</time>
      </trkpt>
      <trkpt lat="44.17053" lon="3.64637">
        <ele>597.3</ele>
        <time>2020-08-21T11:44:36Z</time>
      </trkpt>
      <trkpt lat="44.16953" lon="3.64574">
        <ele>591.4</ele>
        <time>2020-08-21T11:44:51Z</time>
      </trkpt>
      <trkpt lat="44.16936" lon="3.64438">
        <ele>587.5</ele>
        <time>2020-08-21T11:45:40Z</time>
      </trkpt>
      <trkpt lat="44.16969" lon="3.64311">
        <ele>582.9</ele>
        <time>2020-08-21T11:51:21Z</time>
      </trkpt>
      <trkpt lat="44.16979" lon="3.64183">
        <ele>581.1</ele>
        <time>2020-08-21T11:53:07Z</time>
      </trkpt>
      <trkpt lat="44.16982" lon="3.64045">
        <ele>581.4</ele>
        <time>2020-08-21T11:54:10Z</time>
      </trkpt>
      <trkpt lat="44.17027" lon="3.63933">
        <ele>582.2</ele>
        <time>2020-08-21T11:55:15Z</time>
      </trkpt>
      <trkpt lat="44.1708" lon="3.63834">
        <ele>583</ele>
        <time>2020-08-21T11:56:12Z</time>
      </trkpt>
      <trkpt lat="44.17085" lon="3.637">
        <ele>584.5</ele>
        <time>2020-08-21T11:57:10Z</time>
      </trkpt>
      <trkpt lat="44.17128" lon="3.63586">
        <ele>587.2</ele>
        <time>2020-08-21T11:58:22Z</time>
      </trkpt>
      <trkpt lat="44.17136" lon="3.63454">
        <ele>589.6</ele>
        <time>2020-08-21T11:59:24Z</time>
      </trkpt>
      <trkpt lat="44.17146" lon="3.63325">
        <ele>593.1</ele>
        <time>2020-08-21T12:00:24Z</time>
      </trkpt>
      <trkpt lat="44.17216" lon="3.63249">
        <ele>601</ele>
        <time>2020-08-21T12:01:23Z</time>
      </trkpt>
      <trkpt lat="44.17261" lon="3.63134">
        <ele>607.4</ele>
        <time>2020-08-21T12:02:13Z</time>
      </trkpt>
      <trkpt lat="44.17302" lon="3.62993">
        <ele>615.2</ele>
        <time>2020-08-21T12:02:43Z</time>
      </trkpt>
      <trkpt lat="44.17388" lon="3.62913">
        <ele>617.9</ele>
        <time>2020-08-21T12:03:08Z</time>
      </trkpt>
      <trkpt lat="44.17428" lon="3.62791">
        <ele>620.5</ele>
        <time>2020-08-21T12:03:43Z</time>
      </trkpt>
      <trkpt lat="44.17492" lon="3.62705">
        <ele>624.4</ele>
        <time>2020-08-21T12:04:18Z</time>
      </trkpt>
      <trkpt lat="44.17589" lon="3.62706">
        <ele>629.8</ele>
        <time>2020-08-21T12:05:08Z</time>
      </trkpt>
      <trkpt lat="44.17669" lon="3.62651">
        <ele>634.1</ele>
        <time>2020-08-21T12:05:52Z</time>
      </trkpt>
      <trkpt lat="44.17596" lon="3.62565">
        <ele>645.8</ele>
        <time>2020-08-21T12:07:35Z</time>
      </trkpt>
      <trkpt lat="44.17498" lon="3.62543">
        <ele>657.8</ele>
        <time>2020-08-21T12:09:55Z</time>
      </trkpt>
      <trkpt lat="44.17421" lon="3.62464">
        <ele>663.4</ele>
        <time>2020-08-21T12:11:05Z</time>
      </trkpt>
      <trkpt lat="44.17338" lon="3.62398">
        <ele>668</ele>
        <time>2020-08-21T12:12:10Z</time>
      </trkpt>
      <trkpt lat="44.17244" lon="3.62394">
        <ele>672.8</ele>
        <time>2020-08-21T12:13:19Z</time>
      </trkpt>
      <trkpt lat="44.17246" lon="3.62525">
        <ele>683.7</ele>
        <time>2020-08-21T12:14:51Z</time>
      </trkpt>
      <trkpt lat="44.17197" lon="3.6264">
        <ele>692.9</ele>
        <time>2020-08-21T12:16:10Z</time>
      </trkpt>
      <trkpt lat="44.17107" lon="3.62681">
        <ele>699.1</ele>
        <time>2020-08-21T12:17:22Z</time>
      </trkpt>
      <trkpt lat="44.17164" lon="3.62573">
        <ele>722.7</ele>
        <time>2020-08-21T12:22:01Z</time>
      </trkpt>
      <trkpt lat="44.17143" lon="3.62448">
        <ele>728.5</ele>
        <time>2020-08-21T12:23:10Z</time>
      </trkpt>
      <trkpt lat="44.17112" lon="3.62571">
        <ele>736.6</ele>
        <time>2020-08-21T12:24:52Z</time>
      </trkpt>
      <trkpt lat="44.17027" lon="3.62624">
        <ele>750.4</ele>
        <time>2020-08-21T12:27:36Z</time>
      </trkpt>
      <trkpt lat="44.16939" lon="3.62566">
        <ele>766.5</ele>
        <time>2020-08-21T12:28:46Z</time>
      </trkpt>
      <trkpt lat="44.16848" lon="3.62513">
        <ele>777.9</ele>
        <time>2020-08-21T12:30:02Z</time>
      </trkpt>
      <trkpt lat="44.168" lon="3.62401">
        <ele>784.8</ele>
        <time>2020-08-21T12:31:09Z</time>
      </trkpt>
      <trkpt lat="44.16708" lon="3.62415">
        <ele>792</ele>
        <time>2020-08-21T12:32:38Z</time>
      </trkpt>
      <trkpt lat="44.16643" lon="3.62501">
        <ele>797.5</ele>
        <time>2020-08-21T12:33:43Z</time>
      </trkpt>
      <trkpt lat="44.16563" lon="3.62555">
        <ele>801.8</ele>
        <time>2020-08-21T12:34:40Z</time>
      </trkpt>
      <trkpt lat="44.16469" lon="3.62576">
        <ele>809.3</ele>
        <time>2020-08-21T12:35:50Z</time>
      </trkpt>
      <trkpt lat="44.16555" lon="3.62511">
        <ele>817.8</ele>
        <time>2020-08-21T12:37:08Z</time>
      </trkpt>
      <trkpt lat="44.16622" lon="3.62415">
        <ele>824</ele>
        <time>2020-08-21T12:38:05Z</time>
      </trkpt>
      <trkpt lat="44.16663" lon="3.62298">
        <ele>829.2</ele>
        <time>2020-08-21T12:39:01Z</time>
      </trkpt>
      <trkpt lat="44.16742" lon="3.62219">
        <ele>834.5</ele>
        <time>2020-08-21T12:39:54Z</time>
      </trkpt>
      <trkpt lat="44.16824" lon="3.62291">
        <ele>842.4</ele>
        <time>2020-08-21T12:40:51Z</time>
      </trkpt>
      <trkpt lat="44.1688" lon="3.62186">
        <ele>850.3</ele>
        <time>2020-08-21T12:41:54Z</time>
      </trkpt>
      <trkpt lat="44.16917" lon="3.62071">
        <ele>855</ele>
        <time>2020-08-21T12:42:43Z</time>
      </trkpt>
      <trkpt lat="44.16977" lon="3.61965">
        <ele>860.1</ele>
        <time>2020-08-21T12:43:41Z</time>
      </trkpt>
      <trkpt lat="44.17046" lon="3.61872">
        <ele>865.4</ele>
        <time>2020-08-21T12:44:43Z</time>
      </trkpt>
      <trkpt lat="44.17142" lon="3.6187">
        <ele>871</ele>
        <time>2020-08-21T12:45:56Z</time>
      </trkpt>
      <trkpt lat="44.1723" lon="3.61922">
        <ele>877.1</ele>
        <time>2020-08-21T12:46:51Z</time>
      </trkpt>
      <trkpt lat="44.17294" lon="3.61835">
        <ele>883</ele>
        <time>2020-08-21T12:47:47Z</time>
      </trkpt>
      <trkpt lat="44.17307" lon="3.61701">
        <ele>887.2</ele>
        <time>2020-08-21T12:48:46Z</time>
      </trkpt>
      <trkpt lat="44.17358" lon="3.61589">
        <ele>892.5</ele>
        <time>2020-08-21T12:50:04Z</time>
      </trkpt>
      <trkpt lat="44.17414" lon="3.61492">
        <ele>900</ele>
        <time>2020-08-21T12:51:14Z</time>
      </trkpt>
      <trkpt lat="44.17506" lon="3.61526">
        <ele>910.1</ele>
        <time>2020-08-21T12:52:15Z</time>
      </trkpt>
      <trkpt lat="44.17436" lon="3.61437">
        <ele>929.4</ele>
        <time>2020-08-21T12:55:31Z</time>
      </trkpt>
      <trkpt lat="44.1734" lon="3.61442">
        <ele>934</ele>
        <time>2020-08-21T12:56:36Z</time>
      </trkpt>
      <trkpt lat="44.1727" lon="3.61525">
        <ele>938.3</ele>
        <time>2020-08-21T12:57:42Z</time>
      </trkpt>
      <trkpt lat="44.17178" lon="3.61564">
        <ele>944.9</ele>
        <time>2020-08-21T12:59:01Z</time>
      </trkpt>
      <trkpt lat="44.17086" lon="3.61602">
        <ele>956.1</ele>
        <time>2020-08-21T13:01:36Z</time>
      </trkpt>
      <trkpt lat="44.16998" lon="3.61652">
        <ele>962.2</ele>
        <time>2020-08-21T13:02:47Z</time>
      </trkpt>
      <trkpt lat="44.16903" lon="3.61677">
        <ele>966.8</ele>
        <time>2020-08-21T13:03:56Z</time>
      </trkpt>
      <trkpt lat="44.16817" lon="3.61725">
        <ele>980.1</ele>
        <time>2020-08-21T13:08:12Z</time>
      </trkpt>
      <trkpt lat="44.16726" lon="3.61768">
        <ele>985.7</ele>
        <time>2020-08-21T13:09:23Z</time>
      </trkpt>
      <trkpt lat="44.16635" lon="3.61811">
        <ele>989</ele>
        <time>2020-08-21T13:10:31Z</time>
      </trkpt>
      <trkpt lat="44.16539" lon="3.61785">
        <ele>992.8</ele>
        <time>2020-08-21T13:11:48Z</time>
      </trkpt>
      <trkpt lat="44.16451" lon="3.61731">
        <ele>997.7</ele>
        <time>2020-08-21T13:12:57Z</time>
      </trkpt>
      <trkpt lat="44.1636" lon="3.61758">
        <ele>1005</ele>
        <time>2020-08-21T13:14:07Z</time>
      </trkpt>
      <trkpt lat="44.1627" lon="3.61727">
        <ele>1015.8</ele>
        <time>2020-08-21T13:15:53Z</time>
      </trkpt>
      <trkpt lat="44.16324" lon="3.61612">
        <ele>1023.2</ele>
        <time>2020-08-21T13:16:13Z</time>
      </trkpt>
      <trkpt lat="44.16392" lon="3.61503">
        <ele>1022.5</ele>
        <time>2020-08-21T13:16:28Z</time>
      </trkpt>
      <trkpt lat="44.16298" lon="3.61526">
        <ele>1020.1</ele>
        <time>2020-08-21T13:17:03Z</time>
      </trkpt>
      <trkpt lat="44.16205" lon="3.6144">
        <ele>1014.5</ele>
        <time>2020-08-21T13:17:18Z</time>
      </trkpt>
      <trkpt lat="44.16132" lon="3.61359">
        <ele>1010.2</ele>
        <time>2020-08-21T13:17:33Z</time>
      </trkpt>
      <trkpt lat="44.16016" lon="3.61314">
        <ele>1004.5</ele>
        <time>2020-08-21T13:18:56Z</time>
      </trkpt>
      <trkpt lat="44.15922" lon="3.61167">
        <ele>999.2</ele>
        <time>2020-08-21T13:19:11Z</time>
      </trkpt>
      <trkpt lat="44.15792" lon="3.61129">
        <ele>992.8</ele>
        <time>2020-08-21T13:19:26Z</time>
      </trkpt>
      <trkpt lat="44.15905" lon="3.61077">
        <ele>978.1</ele>
        <time>2020-08-21T13:20:10Z</time>
      </trkpt>
      <trkpt lat="44.15996" lon="3.61056">
        <ele>967.6</ele>
        <time>2020-08-21T13:20:25Z</time>
      </trkpt>
      <trkpt lat="44.15901" lon="3.61089">
        <ele>954.5</ele>
        <time>2020-08-21T13:22:41Z</time>
      </trkpt>
      <trkpt lat="44.15806" lon="3.61114">
        <ele>951.2</ele>
        <time>2020-08-21T13:23:51Z</time>
      </trkpt>
      <trkpt lat="44.15721" lon="3.61173">
        <ele>949.8</ele>
        <time>2020-08-21T13:24:57Z</time>
      </trkpt>
      <trkpt lat="44.1562" lon="3.61086">
        <ele>948.3</ele>
        <time>2020-08-21T13:25:17Z</time>
      </trkpt>
      <trkpt lat="44.15537" lon="3.60991">
        <ele>947.6</ele>
        <time>2020-08-21T13:25:32Z</time>
      </trkpt>
      <trkpt lat="44.1545" lon="3.61056">
        <ele>946.2</ele>
        <time>2020-08-21T13:25:52Z</time>
      </trkpt>
      <trkpt lat="44.15359" lon="3.61091">
        <ele>947.2</ele>
        <time>2020-08-21T13:26:17Z</time>
      </trkpt>
      <trkpt lat="44.15267" lon="3.61059">
        <ele>949</ele>
        <time>2020-08-21T13:27:37Z</time>
      </trkpt>
      <trkpt lat="44.1518" lon="3.60994">
        <ele>949.3</ele>
        <time>2020-08-21T13:28:52Z</time>
      </trkpt>
      <trkpt lat="44.15085" lon="3.6099">
        <ele>953.7</ele>
        <time>2020-08-21T13:30:01Z</time>
      </trkpt>
      <trkpt lat="44.15012" lon="3.61077">
        <ele>958.8</ele>
        <time>2020-08-21T13:31:04Z</time>
      </trkpt>
      <trkpt lat="44.14972" lon="3.61188">
        <ele>963.7</ele>
        <time>2020-08-21T13:32:01Z</time>
      </trkpt>
      <trkpt lat="44.14948" lon="3.61062">
        <ele>968.7</ele>
        <time>2020-08-21T13:33:30Z</time>
      </trkpt>
      <trkpt lat="44.14867" lon="3.61131">
        <ele>971.9</ele>
        <time>2020-08-21T13:34:05Z</time>
      </trkpt>
      <trkpt lat="44.14769" lon="3.61104">
        <ele>972.7</ele>
        <time>2020-08-21T13:34:30Z</time>
      </trkpt>
      <trkpt lat="44.1468" lon="3.61155">
        <ele>972.9</ele>
        <time>2020-08-21T13:34:55Z</time>
      </trkpt>
      <trkpt lat="44.14636" lon="3.61262">
        <ele>974.2</ele>
        <time>2020-08-21T13:35:51Z</time>
      </trkpt>
      <trkpt lat="44.1465" lon="3.61399">
        <ele>976.7</ele>
        <time>2020-08-21T13:37:00Z</time>
      </trkpt>
      <trkpt lat="44.14683" lon="3.6152">
        <ele>979.2</ele>
        <time>2020-08-21T13:38:00Z</time>
      </trkpt>
      <trkpt lat="44.14689" lon="3.61657">
        <ele>982</ele>
        <time>2020-08-21T13:39:03Z</time>
      </trkpt>
      <trkpt lat="44.14574" lon="3.6168">
        <ele>986.7</ele>
        <time>2020-08-21T13:39:55Z</time>
      </trkpt>
      <trkpt lat="44.14516" lon="3.6158">
        <ele>985.1</ele>
        <time>2020-08-21T13:40:10Z</time>
      </trkpt>
      <trkpt lat="44.14422" lon="3.61524">
        <ele>973.8</ele>
        <time>2020-08-21T13:40:25Z</time>
      </trkpt>
      <trkpt lat="44.14319" lon="3.61479">
        <ele>973.4</ele>
        <time>2020-08-21T13:40:45Z</time>
      </trkpt>
      <trkpt lat="44.14226" lon="3.61429">
        <ele>981.2</ele>
        <time>2020-08-21T13:41:26Z</time>
      </trkpt>
      <trkpt lat="44.14133" lon="3.6145">
        <ele>988.3</ele>
        <time>2020-08-21T13:42:22Z</time>
      </trkpt>
      <trkpt lat="44.14051" lon="3.61521">
        <ele>995.6</ele>
        <time>2020-08-21T13:43:23Z</time>
      </trkpt>
      <trkpt lat="44.13992" lon="3.61623">
        <ele>1000.3</ele>
        <time>2020-08-21T13:44:26Z</time>
      </trkpt>
      <trkpt lat="44.13896" lon="3.61615">
        <ele>1003</ele>
        <time>2020-08-21T13:45:25Z</time>
      </trkpt>
      <trkpt lat="44.13809" lon="3.61654">
        <ele>1004.1</ele>
        <time>2020-08-21T13:45:55Z</time>
      </trkpt>
      <trkpt lat="44.13709" lon="3.61644">
        <ele>1005.2</ele>
        <time>2020-08-21T13:46:15Z</time>
      </trkpt>
      <trkpt lat="44.13609" lon="3.61622">
        <ele>1005.2</ele>
        <time>2020-08-21T13:46:51Z</time>
      </trkpt>
      <trkpt lat="44.1352" lon="3.61668">
        <ele>1005.4</ele>
        <time>2020-08-21T13:47:31Z</time>
      </trkpt>
      <trkpt lat="44.13461" lon="3.61771">
        <ele>1006.4</ele>
        <time>2020-08-21T13:49:24Z</time>
      </trkpt>
      <trkpt lat="44.13398" lon="3.61857">
        <ele>1006.9</ele>
        <time>2020-08-21T13:49:54Z</time>
      </trkpt>
      <trkpt lat="44.13306" lon="3.61866">
        <ele>1007.6</ele>
        <time>2020-08-21T13:50:29Z</time>
      </trkpt>
      <trkpt lat="44.13207" lon="3.61886">
        <ele>1008.6</ele>
        <time>2020-08-21T13:51:15Z</time>
      </trkpt>
      <trkpt lat="44.13111" lon="3.61905">
        <ele>1009.3</ele>
        <time>2020-08-21T13:51:50Z</time>
      </trkpt>
      <trkpt lat="44.13014" lon="3.61916">
        <ele>1010.2</ele>
        <time>2020-08-21T13:52:30Z</time>
      </trkpt>
      <trkpt lat="44.12913" lon="3.61913">
        <ele>1010.8</ele>
        <time>2020-08-21T13:53:05Z</time>
      </trkpt>
      <trkpt lat="44.12816" lon="3.61942">
        <ele>1011.7</ele>
        <time>2020-08-21T13:53:45Z</time>
      </trkpt>
      <trkpt lat="44.1273" lon="3.61995">
        <ele>1012.9</ele>
        <time>2020-08-21T13:54:25Z</time>
      </trkpt>
      <trkpt lat="44.12644" lon="3.62056">
        <ele>1015.8</ele>
        <time>2020-08-21T13:55:30Z</time>
      </trkpt>
      <trkpt lat="44.12572" lon="3.62127">
        <ele>1018.8</ele>
        <time>2020-08-21T13:56:10Z</time>
      </trkpt>
      <trkpt lat="44.12483" lon="3.6217">
        <ele>1022.5</ele>
        <time>2020-08-21T13:57:04Z</time>
      </trkpt>
      <trkpt lat="44.12386" lon="3.62193">
        <ele>1027.3</ele>
        <time>2020-08-21T13:58:13Z</time>
      </trkpt>
      <trkpt lat="44.12296" lon="3.62231">
        <ele>1032.7</ele>
        <time>2020-08-21T13:59:20Z</time>
      </trkpt>
      <trkpt lat="44.12234" lon="3.62322">
        <ele>1040.2</ele>
        <time>2020-08-21T14:00:11Z</time>
      </trkpt>
      <trkpt lat="44.12218" lon="3.62457">
        <ele>1051.5</ele>
        <time>2020-08-21T14:01:23Z</time>
      </trkpt>
      <trkpt lat="44.1215" lon="3.62539">
        <ele>1059</ele>
        <time>2020-08-21T14:02:26Z</time>
      </trkpt>
      <trkpt lat="44.1223" lon="3.62605">
        <ele>1067.9</ele>
        <time>2020-08-21T14:03:38Z</time>
      </trkpt>
      <trkpt lat="44.12275" lon="3.62717">
        <ele>1075</ele>
        <time>2020-08-21T14:05:32Z</time>
      </trkpt>
      <trkpt lat="44.12306" lon="3.62842">
        <ele>1081.6</ele>
        <time>2020-08-21T14:07:06Z</time>
      </trkpt>
      <trkpt lat="44.12326" lon="3.62976">
        <ele>1091.1</ele>
        <time>2020-08-21T14:08:51Z</time>
      </trkpt>
      <trkpt lat="44.12348" lon="3.63107">
        <ele>1098.3</ele>
        <time>2020-08-21T14:10:21Z</time>
      </trkpt>
      <trkpt lat="44.1239" lon="3.63223">
        <ele>1102.2</ele>
        <time>2020-08-21T14:11:13Z</time>
      </trkpt>
      <trkpt lat="44.12438" lon="3.63345">
        <ele>1104.5</ele>
        <time>2020-08-21T14:12:04Z</time>
      </trkpt>
      <trkpt lat="44.12526" lon="3.63391">
        <ele>1106.5</ele>
        <time>2020-08-21T14:12:55Z</time>
      </trkpt>
    </trkseg>
  </trk>
</gpx>